sensor_id;sensor_type;location;lat;lon;timestamp;P1;durP1;ratioP1;P2;durP2;ratioP2
54875;SDS011;40764;48.472;8.166;2023-06-22T00:01:03;13.40;;;9.40;;
54875;SDS011;40764;48.472;8.166;2023-06-22T00:07:07;17.00;;;9.37;;
54875;SDS011;40764;48.472;8.166;2023-06-22T00:13:08;14.98;;;8.77;;
54875;SDS011;40764;48.472;8.166;2023-06-22T00:25:19;16.10;;;8.82;;
54875;SDS011;40764;48.472;8.166;2023-06-22T00:31:19;18.63;;;10.20;;
54875;SDS011;40764;48.472;8.166;2023-06-22T00:37:20;14.55;;;8.73;;
54875;SDS011;40764;48.472;8.166;2023-06-22T00:43:25;14.85;;;9.48;;
54875;SDS011;40764;48.472;8.166;2023-06-22T00:49:26;15.87;;;9.60;;
54875;SDS011;40764;48.472;8.166;2023-06-22T00:55:26;15.60;;;8.57;;
54875;SDS011;40764;48.472;8.166;2023-06-22T01:01:27;18.02;;;10.48;;
54875;SDS011;40764;48.472;8.166;2023-06-22T01:19:59;15.38;;;8.73;;
54875;SDS011;40764;48.472;8.166;2023-06-22T01:32:19;19.02;;;11.48;;
54875;SDS011;40764;48.472;8.166;2023-06-22T01:38:20;19.43;;;10.37;;
54875;SDS011;40764;48.472;8.166;2023-06-22T01:44:22;18.90;;;9.68;;
54875;SDS011;40764;48.472;8.166;2023-06-22T01:50:25;14.73;;;8.93;;
54875;SDS011;40764;48.472;8.166;2023-06-22T01:56:26;16.17;;;9.50;;
54875;SDS011;40764;48.472;8.166;2023-06-22T02:02:35;15.77;;;10.57;;
54875;SDS011;40764;48.472;8.166;2023-06-22T02:08:54;18.60;;;10.82;;
54875;SDS011;40764;48.472;8.166;2023-06-22T02:14:59;22.65;;;10.65;;
54875;SDS011;40764;48.472;8.166;2023-06-22T02:27:01;20.58;;;10.25;;
54875;SDS011;40764;48.472;8.166;2023-06-22T02:33:02;19.10;;;10.33;;
54875;SDS011;40764;48.472;8.166;2023-06-22T02:39:02;19.47;;;10.60;;
54875;SDS011;40764;48.472;8.166;2023-06-22T02:45:03;21.33;;;10.63;;
54875;SDS011;40764;48.472;8.166;2023-06-22T02:51:04;23.97;;;10.13;;
54875;SDS011;40764;48.472;8.166;2023-06-22T02:57:04;18.00;;;10.10;;
54875;SDS011;40764;48.472;8.166;2023-06-22T03:03:05;12.70;;;9.20;;
54875;SDS011;40764;48.472;8.166;2023-06-22T03:09:05;19.27;;;9.55;;
54875;SDS011;40764;48.472;8.166;2023-06-22T03:15:06;15.57;;;10.70;;
54875;SDS011;40764;48.472;8.166;2023-06-22T03:21:11;25.08;;;10.13;;
54875;SDS011;40764;48.472;8.166;2023-06-22T03:27:11;18.05;;;10.65;;
54875;SDS011;40764;48.472;8.166;2023-06-22T03:33:11;20.25;;;11.15;;
54875;SDS011;40764;48.472;8.166;2023-06-22T03:39:12;22.02;;;10.65;;
54875;SDS011;40764;48.472;8.166;2023-06-22T03:45:12;22.80;;;11.03;;
54875;SDS011;40764;48.472;8.166;2023-06-22T03:57:16;21.08;;;12.20;;
54875;SDS011;40764;48.472;8.166;2023-06-22T04:03:17;25.30;;;11.32;;
54875;SDS011;40764;48.472;8.166;2023-06-22T04:09:21;21.05;;;10.45;;
54875;SDS011;40764;48.472;8.166;2023-06-22T04:15:21;20.03;;;11.63;;
54875;SDS011;40764;48.472;8.166;2023-06-22T04:21:22;32.90;;;15.63;;
54875;SDS011;40764;48.472;8.166;2023-06-22T04:27:22;23.63;;;12.30;;
54875;SDS011;40764;48.472;8.166;2023-06-22T04:33:23;28.03;;;12.17;;
54875;SDS011;40764;48.472;8.166;2023-06-22T04:39:23;22.37;;;11.30;;
54875;SDS011;40764;48.472;8.166;2023-06-22T04:45:24;22.53;;;11.47;;
54875;SDS011;40764;48.472;8.166;2023-06-22T04:51:25;19.60;;;11.75;;
54875;SDS011;40764;48.472;8.166;2023-06-22T04:57:30;23.17;;;10.95;;
54875;SDS011;40764;48.472;8.166;2023-06-22T05:03:32;22.15;;;11.35;;
54875;SDS011;40764;48.472;8.166;2023-06-22T05:09:32;24.92;;;12.93;;
54875;SDS011;40764;48.472;8.166;2023-06-22T05:15:33;21.02;;;10.95;;
54875;SDS011;40764;48.472;8.166;2023-06-22T05:21:41;23.60;;;12.10;;
54875;SDS011;40764;48.472;8.166;2023-06-22T05:27:42;22.38;;;11.07;;
54875;SDS011;40764;48.472;8.166;2023-06-22T05:33:44;25.25;;;11.65;;
54875;SDS011;40764;48.472;8.166;2023-06-22T05:39:44;23.03;;;10.97;;
54875;SDS011;40764;48.472;8.166;2023-06-22T05:45:44;22.23;;;11.13;;
54875;SDS011;40764;48.472;8.166;2023-06-22T05:51:45;20.75;;;10.60;;
54875;SDS011;40764;48.472;8.166;2023-06-22T05:57:45;16.07;;;9.70;;
54875;SDS011;40764;48.472;8.166;2023-06-22T06:03:45;21.55;;;9.57;;
54875;SDS011;40764;48.472;8.166;2023-06-22T06:09:46;18.80;;;6.90;;
54875;SDS011;40764;48.472;8.166;2023-06-22T06:15:48;13.07;;;5.75;;
54875;SDS011;40764;48.472;8.166;2023-06-22T06:21:48;13.97;;;5.37;;
54875;SDS011;40764;48.472;8.166;2023-06-22T06:27:50;11.80;;;5.38;;
54875;SDS011;40764;48.472;8.166;2023-06-22T06:33:51;11.80;;;5.75;;
54875;SDS011;40764;48.472;8.166;2023-06-22T06:39:51;12.73;;;6.90;;
54875;SDS011;40764;48.472;8.166;2023-06-22T06:45:52;14.70;;;5.70;;
54875;SDS011;40764;48.472;8.166;2023-06-22T06:51:52;13.88;;;6.15;;
54875;SDS011;40764;48.472;8.166;2023-06-22T06:57:52;11.52;;;6.07;;
54875;SDS011;40764;48.472;8.166;2023-06-22T07:03:53;16.77;;;6.03;;
54875;SDS011;40764;48.472;8.166;2023-06-22T07:09:53;17.00;;;6.57;;
54875;SDS011;40764;48.472;8.166;2023-06-22T07:15:54;19.38;;;6.90;;
54875;SDS011;40764;48.472;8.166;2023-06-22T07:21:54;18.70;;;7.05;;
54875;SDS011;40764;48.472;8.166;2023-06-22T07:27:59;15.87;;;6.87;;
54875;SDS011;40764;48.472;8.166;2023-06-22T07:34:04;15.95;;;8.45;;
54875;SDS011;40764;48.472;8.166;2023-06-22T07:40:04;12.23;;;6.97;;
54875;SDS011;40764;48.472;8.166;2023-06-22T07:46:06;11.50;;;6.93;;
54875;SDS011;40764;48.472;8.166;2023-06-22T07:52:07;14.30;;;6.80;;
54875;SDS011;40764;48.472;8.166;2023-06-22T07:58:07;15.90;;;6.17;;
54875;SDS011;40764;48.472;8.166;2023-06-22T08:04:07;14.60;;;6.80;;
54875;SDS011;40764;48.472;8.166;2023-06-22T08:10:10;12.40;;;6.27;;
54875;SDS011;40764;48.472;8.166;2023-06-22T08:16:11;15.80;;;6.13;;
54875;SDS011;40764;48.472;8.166;2023-06-22T08:22:12;11.97;;;6.37;;
54875;SDS011;40764;48.472;8.166;2023-06-22T08:28:12;16.00;;;6.83;;
54875;SDS011;40764;48.472;8.166;2023-06-22T08:34:13;19.23;;;6.28;;
54875;SDS011;40764;48.472;8.166;2023-06-22T08:40:13;14.40;;;6.43;;
54875;SDS011;40764;48.472;8.166;2023-06-22T08:46:13;13.07;;;5.77;;
54875;SDS011;40764;48.472;8.166;2023-06-22T08:52:14;14.70;;;6.53;;
54875;SDS011;40764;48.472;8.166;2023-06-22T08:58:15;16.38;;;6.28;;
54875;SDS011;40764;48.472;8.166;2023-06-22T09:04:15;18.00;;;6.35;;
54875;SDS011;40764;48.472;8.166;2023-06-22T09:16:17;12.32;;;7.03;;
54875;SDS011;40764;48.472;8.166;2023-06-22T09:22:18;20.73;;;6.25;;
54875;SDS011;40764;48.472;8.166;2023-06-22T09:34:18;13.73;;;6.50;;
54875;SDS011;40764;48.472;8.166;2023-06-22T09:40:20;20.52;;;7.82;;
54875;SDS011;40764;48.472;8.166;2023-06-22T09:46:20;19.15;;;6.97;;
54875;SDS011;40764;48.472;8.166;2023-06-22T09:52:31;13.05;;;6.28;;
54875;SDS011;40764;48.472;8.166;2023-06-22T10:04:39;17.02;;;6.90;;
54875;SDS011;40764;48.472;8.166;2023-06-22T10:10:40;14.45;;;7.38;;
54875;SDS011;40764;48.472;8.166;2023-06-22T10:16:40;15.77;;;7.38;;
54875;SDS011;40764;48.472;8.166;2023-06-22T10:28:45;13.63;;;7.80;;
54875;SDS011;40764;48.472;8.166;2023-06-22T10:34:47;16.80;;;7.72;;
54875;SDS011;40764;48.472;8.166;2023-06-22T10:40:48;19.10;;;6.88;;
54875;SDS011;40764;48.472;8.166;2023-06-22T10:46:48;13.95;;;7.95;;
54875;SDS011;40764;48.472;8.166;2023-06-22T10:52:48;14.97;;;6.77;;
54875;SDS011;40764;48.472;8.166;2023-06-22T10:58:49;14.20;;;6.93;;
54875;SDS011;40764;48.472;8.166;2023-06-22T11:04:49;15.40;;;7.77;;
54875;SDS011;40764;48.472;8.166;2023-06-22T11:10:50;20.48;;;8.38;;
54875;SDS011;40764;48.472;8.166;2023-06-22T11:16:51;17.88;;;6.88;;
54875;SDS011;40764;48.472;8.166;2023-06-22T11:22:54;11.80;;;6.80;;
54875;SDS011;40764;48.472;8.166;2023-06-22T11:28:55;12.25;;;7.70;;
54875;SDS011;40764;48.472;8.166;2023-06-22T11:34:55;16.58;;;7.97;;
54875;SDS011;40764;48.472;8.166;2023-06-22T11:40:57;17.35;;;8.20;;
54875;SDS011;40764;48.472;8.166;2023-06-22T11:46:58;16.80;;;8.35;;
54875;SDS011;40764;48.472;8.166;2023-06-22T11:53:00;15.23;;;8.07;;
54875;SDS011;40764;48.472;8.166;2023-06-22T11:59:01;18.92;;;8.25;;
54875;SDS011;40764;48.472;8.166;2023-06-22T12:05:01;18.20;;;7.97;;
54875;SDS011;40764;48.472;8.166;2023-06-22T12:11:04;19.27;;;8.35;;
54875;SDS011;40764;48.472;8.166;2023-06-22T12:23:28;15.85;;;8.30;;
54875;SDS011;40764;48.472;8.166;2023-06-22T12:29:29;16.92;;;8.80;;
54875;SDS011;40764;48.472;8.166;2023-06-22T12:35:29;14.50;;;8.53;;
54875;SDS011;40764;48.472;8.166;2023-06-22T12:41:29;20.15;;;8.98;;
54875;SDS011;40764;48.472;8.166;2023-06-22T12:47:30;15.55;;;8.90;;
54875;SDS011;40764;48.472;8.166;2023-06-22T12:53:31;21.05;;;6.95;;
54875;SDS011;40764;48.472;8.166;2023-06-22T12:59:31;18.17;;;6.72;;
54875;SDS011;40764;48.472;8.166;2023-06-22T13:05:31;16.95;;;6.40;;
54875;SDS011;40764;48.472;8.166;2023-06-22T13:11:34;16.92;;;5.85;;
54875;SDS011;40764;48.472;8.166;2023-06-22T13:17:36;16.20;;;5.47;;
54875;SDS011;40764;48.472;8.166;2023-06-22T13:23:36;17.40;;;6.20;;
54875;SDS011;40764;48.472;8.166;2023-06-22T13:29:37;13.85;;;5.35;;
54875;SDS011;40764;48.472;8.166;2023-06-22T13:42:03;22.90;;;6.05;;
54875;SDS011;40764;48.472;8.166;2023-06-22T13:48:05;18.90;;;5.88;;
54875;SDS011;40764;48.472;8.166;2023-06-22T13:54:05;19.60;;;6.13;;
54875;SDS011;40764;48.472;8.166;2023-06-22T14:00:06;15.70;;;5.63;;
54875;SDS011;40764;48.472;8.166;2023-06-22T14:06:12;13.82;;;5.70;;
54875;SDS011;40764;48.472;8.166;2023-06-22T14:12:13;23.65;;;5.70;;
54875;SDS011;40764;48.472;8.166;2023-06-22T14:18:13;18.85;;;5.22;;
54875;SDS011;40764;48.472;8.166;2023-06-22T14:24:14;17.20;;;5.70;;
54875;SDS011;40764;48.472;8.166;2023-06-22T14:30:15;15.82;;;5.40;;
54875;SDS011;40764;48.472;8.166;2023-06-22T14:36:17;19.33;;;6.57;;
54875;SDS011;40764;48.472;8.166;2023-06-22T14:42:26;18.80;;;5.88;;
54875;SDS011;40764;48.472;8.166;2023-06-22T14:48:26;15.30;;;5.43;;
54875;SDS011;40764;48.472;8.166;2023-06-22T14:54:27;12.33;;;5.47;;
54875;SDS011;40764;48.472;8.166;2023-06-22T15:00:27;20.97;;;6.70;;
54875;SDS011;40764;48.472;8.166;2023-06-22T15:06:27;16.38;;;5.43;;
54875;SDS011;40764;48.472;8.166;2023-06-22T15:12:28;20.13;;;5.77;;
54875;SDS011;40764;48.472;8.166;2023-06-22T15:18:28;16.63;;;6.10;;
54875;SDS011;40764;48.472;8.166;2023-06-22T15:24:29;16.80;;;5.80;;
54875;SDS011;40764;48.472;8.166;2023-06-22T15:30:32;15.30;;;5.33;;
54875;SDS011;40764;48.472;8.166;2023-06-22T15:36:34;15.35;;;5.65;;
54875;SDS011;40764;48.472;8.166;2023-06-22T15:42:34;15.23;;;4.93;;
54875;SDS011;40764;48.472;8.166;2023-06-22T15:48:42;16.77;;;5.30;;
54875;SDS011;40764;48.472;8.166;2023-06-22T15:54:42;14.68;;;5.50;;
54875;SDS011;40764;48.472;8.166;2023-06-22T16:00:43;23.23;;;5.25;;
54875;SDS011;40764;48.472;8.166;2023-06-22T16:06:44;23.30;;;6.57;;
54875;SDS011;40764;48.472;8.166;2023-06-22T16:12:45;15.52;;;5.53;;
54875;SDS011;40764;48.472;8.166;2023-06-22T16:18:45;22.00;;;5.27;;
54875;SDS011;40764;48.472;8.166;2023-06-22T16:24:47;17.55;;;5.15;;
54875;SDS011;40764;48.472;8.166;2023-06-22T16:30:56;17.63;;;5.25;;
54875;SDS011;40764;48.472;8.166;2023-06-22T16:36:58;16.75;;;5.10;;
54875;SDS011;40764;48.472;8.166;2023-06-22T16:42:58;22.15;;;5.93;;
54875;SDS011;40764;48.472;8.166;2023-06-22T16:49:02;14.52;;;5.15;;
54875;SDS011;40764;48.472;8.166;2023-06-22T16:55:05;14.77;;;5.13;;
54875;SDS011;40764;48.472;8.166;2023-06-22T17:01:07;12.32;;;3.83;;
54875;SDS011;40764;48.472;8.166;2023-06-22T17:07:24;16.88;;;4.93;;
54875;SDS011;40764;48.472;8.166;2023-06-22T17:13:29;15.52;;;5.22;;
54875;SDS011;40764;48.472;8.166;2023-06-22T17:19:29;12.17;;;4.30;;
54875;SDS011;40764;48.472;8.166;2023-06-22T17:25:30;18.48;;;5.10;;
54875;SDS011;40764;48.472;8.166;2023-06-22T17:31:36;14.32;;;5.40;;
54875;SDS011;40764;48.472;8.166;2023-06-22T17:37:54;16.30;;;5.10;;
54875;SDS011;40764;48.472;8.166;2023-06-22T17:43:56;16.45;;;4.63;;
54875;SDS011;40764;48.472;8.166;2023-06-22T17:50:04;19.42;;;5.60;;
54875;SDS011;40764;48.472;8.166;2023-06-22T17:56:05;20.85;;;5.30;;
54875;SDS011;40764;48.472;8.166;2023-06-22T18:08:09;11.95;;;4.68;;
54875;SDS011;40764;48.472;8.166;2023-06-22T18:20:10;16.70;;;5.13;;
54875;SDS011;40764;48.472;8.166;2023-06-22T18:32:33;17.23;;;5.47;;
54875;SDS011;40764;48.472;8.166;2023-06-22T18:44:59;15.98;;;5.03;;
54875;SDS011;40764;48.472;8.166;2023-06-22T18:51:13;18.65;;;5.38;;
54875;SDS011;40764;48.472;8.166;2023-06-22T18:57:25;21.27;;;6.07;;
54875;SDS011;40764;48.472;8.166;2023-06-22T19:03:32;21.48;;;4.82;;
54875;SDS011;40764;48.472;8.166;2023-06-22T19:09:35;14.00;;;5.00;;
54875;SDS011;40764;48.472;8.166;2023-06-22T19:15:35;7.93;;;4.10;;
54875;SDS011;40764;48.472;8.166;2023-06-22T19:27:40;13.55;;;5.60;;
54875;SDS011;40764;48.472;8.166;2023-06-22T19:33:41;14.73;;;4.73;;
54875;SDS011;40764;48.472;8.166;2023-06-22T19:39:41;12.60;;;4.67;;
54875;SDS011;40764;48.472;8.166;2023-06-22T19:45:47;16.63;;;4.85;;
54875;SDS011;40764;48.472;8.166;2023-06-22T19:51:47;13.52;;;5.40;;
54875;SDS011;40764;48.472;8.166;2023-06-22T19:57:49;13.55;;;3.95;;
54875;SDS011;40764;48.472;8.166;2023-06-22T20:03:54;9.05;;;3.05;;
54875;SDS011;40764;48.472;8.166;2023-06-22T20:10:28;6.75;;;2.90;;
54875;SDS011;40764;48.472;8.166;2023-06-22T20:16:22;10.63;;;3.03;;
54875;SDS011;40764;48.472;8.166;2023-06-22T20:22:22;5.17;;;2.67;;
54875;SDS011;40764;48.472;8.166;2023-06-22T20:28:24;3.53;;;2.60;;
54875;SDS011;40764;48.472;8.166;2023-06-22T20:34:26;10.18;;;3.78;;
54875;SDS011;40764;48.472;8.166;2023-06-22T20:40:27;8.80;;;3.50;;
54875;SDS011;40764;48.472;8.166;2023-06-22T20:46:28;8.75;;;3.88;;
54875;SDS011;40764;48.472;8.166;2023-06-22T20:52:31;12.73;;;3.85;;
54875;SDS011;40764;48.472;8.166;2023-06-22T20:58:31;10.90;;;4.57;;
54875;SDS011;40764;48.472;8.166;2023-06-22T21:04:31;13.43;;;5.85;;
54875;SDS011;40764;48.472;8.166;2023-06-22T21:10:33;10.80;;;5.30;;
54875;SDS011;40764;48.472;8.166;2023-06-22T21:16:33;10.23;;;5.22;;
54875;SDS011;40764;48.472;8.166;2023-06-22T21:22:34;12.50;;;5.88;;
54875;SDS011;40764;48.472;8.166;2023-06-22T21:28:35;8.73;;;4.57;;
54875;SDS011;40764;48.472;8.166;2023-06-22T21:40:38;9.60;;;2.70;;
54875;SDS011;40764;48.472;8.166;2023-06-22T21:46:39;8.30;;;3.28;;
54875;SDS011;40764;48.472;8.166;2023-06-22T21:52:39;18.67;;;6.65;;
54875;SDS011;40764;48.472;8.166;2023-06-22T21:58:39;15.27;;;4.10;;
54875;SDS011;40764;48.472;8.166;2023-06-22T22:04:40;10.70;;;3.72;;
54875;SDS011;40764;48.472;8.166;2023-06-22T22:10:41;6.43;;;3.90;;
54875;SDS011;40764;48.472;8.166;2023-06-22T22:16:41;5.75;;;2.65;;
54875;SDS011;40764;48.472;8.166;2023-06-22T22:22:43;9.57;;;3.43;;
54875;SDS011;40764;48.472;8.166;2023-06-22T22:28:43;9.38;;;4.63;;
54875;SDS011;40764;48.472;8.166;2023-06-22T22:34:44;8.63;;;2.85;;
54875;SDS011;40764;48.472;8.166;2023-06-22T22:40:47;8.77;;;3.40;;
54875;SDS011;40764;48.472;8.166;2023-06-22T22:46:52;10.23;;;5.70;;
54875;SDS011;40764;48.472;8.166;2023-06-22T22:52:52;8.75;;;4.53;;
54875;SDS011;40764;48.472;8.166;2023-06-22T22:58:53;18.07;;;5.97;;
54875;SDS011;40764;48.472;8.166;2023-06-22T23:04:54;4.00;;;1.92;;
54875;SDS011;40764;48.472;8.166;2023-06-22T23:11:00;4.40;;;2.85;;
54875;SDS011;40764;48.472;8.166;2023-06-22T23:17:02;7.63;;;2.85;;
54875;SDS011;40764;48.472;8.166;2023-06-22T23:23:03;10.63;;;3.67;;
54875;SDS011;40764;48.472;8.166;2023-06-22T23:29:03;8.23;;;3.90;;
54875;SDS011;40764;48.472;8.166;2023-06-22T23:35:05;9.18;;;3.70;;
54875;SDS011;40764;48.472;8.166;2023-06-22T23:41:09;10.25;;;5.68;;
54875;SDS011;40764;48.472;8.166;2023-06-22T23:47:10;3.43;;;2.90;;
54875;SDS011;40764;48.472;8.166;2023-06-22T23:53:12;6.20;;;4.35;;
54875;SDS011;40764;48.472;8.166;2023-06-22T23:59:13;8.30;;;4.30;;
